createdAt,value
2019-04-14T00:02:49.177Z,101572.30
2019-04-14T00:05:18.922Z,101566.17
2019-04-14T00:07:49.447Z,101566.05
2019-04-14T00:10:20.387Z,101560.97
2019-04-14T00:12:51.308Z,101564.94
2019-04-14T00:15:29.486Z,101556.36
2019-04-14T00:17:56.778Z,101561.98
2019-04-14T00:20:27.180Z,101557.41
2019-04-14T00:22:57.594Z,101557.69
2019-04-14T00:25:28.267Z,101556.27
2019-04-14T00:27:58.617Z,101564.21
2019-04-14T00:30:27.949Z,101557.75
2019-04-14T00:33:00.067Z,101564.36
2019-04-14T00:35:38.585Z,101557.55
2019-04-14T00:38:20.239Z,101558.23
2019-04-14T00:41:37.109Z,101558.38
2019-04-14T00:44:17.121Z,101552.59
2019-04-14T00:46:53.849Z,101544.59
2019-04-14T00:49:24.628Z,101542.91
2019-04-14T00:51:54.910Z,101543.66
2019-04-14T00:54:24.510Z,101548.58
2019-04-14T00:56:54.147Z,101536.19
2019-04-14T00:59:24.528Z,101544.53
2019-04-14T01:01:54.786Z,101540.83
2019-04-14T01:04:25.128Z,101545.02
2019-04-14T01:06:55.456Z,101544.05
2019-04-14T01:09:24.772Z,101538.26
2019-04-14T01:11:55.215Z,101538.55
2019-04-14T01:14:25.571Z,101534.86
2019-04-14T01:16:55.859Z,101539.23
2019-04-14T01:19:25.105Z,101537.74
2019-04-14T01:21:54.636Z,101531.12
2019-04-14T01:24:25.005Z,101526.29
2019-04-14T01:26:55.075Z,101532.50
2019-04-14T01:29:25.422Z,101543.72
2019-04-14T01:31:55.790Z,101536.20
2019-04-14T01:34:26.006Z,101540.98
2019-04-14T01:36:56.116Z,101544.68
2019-04-14T01:39:26.524Z,101542.84
2019-04-14T01:41:56.434Z,101544.45
2019-04-14T01:44:28.714Z,101545.11
2019-04-14T01:46:58.807Z,101545.55
2019-04-14T01:49:29.248Z,101549.25
2019-04-14T01:52:27.372Z,101546.75
2019-04-14T01:55:20.055Z,101548.11
2019-04-14T01:57:57.552Z,101549.95
2019-04-14T02:00:46.676Z,101554.17
2019-04-14T02:03:17.049Z,101551.09
2019-04-14T02:05:47.426Z,101555.17
2019-04-14T02:08:17.767Z,101547.80
2019-04-14T02:10:47.857Z,101557.24
2019-04-14T02:13:18.157Z,101554.33
2019-04-14T02:15:48.549Z,101555.70
2019-04-14T02:18:18.573Z,101558.03
2019-04-14T02:20:49.041Z,101561.45
2019-04-14T02:23:19.261Z,101560.23
2019-04-14T02:25:49.369Z,101553.25
2019-04-14T02:28:19.801Z,101558.28
2019-04-14T02:31:00.141Z,101560.73
2019-04-14T02:33:44.437Z,101559.61
2019-04-14T02:36:21.958Z,101557.27
2019-04-14T02:44:01.552Z,101563.45
2019-04-14T02:46:27.839Z,101564.77
2019-04-14T02:49:04.574Z,101569.34
2019-04-14T02:51:26.941Z,101560.25
2019-04-14T02:53:59.411Z,101560.25
2019-04-14T02:59:02.091Z,101561.47
2019-04-14T03:04:01.588Z,101567.91
2019-04-14T03:06:38.554Z,101572.41
2019-04-14T03:09:10.117Z,101572.85
2019-04-14T03:11:32.958Z,101569.84
2019-04-14T03:14:06.353Z,101576.36
2019-04-14T03:17:06.140Z,101577.00
2019-04-14T03:19:59.072Z,101575.77
2019-04-14T03:22:36.915Z,101569.38
2019-04-14T03:25:22.555Z,101581.50
2019-04-14T03:27:58.591Z,101577.09
2019-04-14T03:30:58.608Z,101576.16
2019-04-14T03:38:12.770Z,101582.23
2019-04-14T03:40:42.870Z,101586.05
2019-04-14T03:43:25.199Z,101583.40
2019-04-14T03:45:55.069Z,101580.53
2019-04-14T03:50:48.049Z,101584.77
2019-04-14T03:53:48.729Z,101581.77
2019-04-14T03:56:00.764Z,101579.84
2019-04-14T03:58:27.227Z,101578.80
2019-04-14T04:00:57.617Z,101583.75
2019-04-14T04:03:27.963Z,101580.13
2019-04-14T04:05:58.541Z,101578.81
2019-04-14T04:08:29.033Z,101579.28
2019-04-14T04:10:59.804Z,101576.89
2019-04-14T04:13:30.211Z,101583.00
2019-04-14T04:16:15.915Z,101580.75
2019-04-14T04:18:56.255Z,101582.91
2019-04-14T04:21:29.147Z,101585.44
2019-04-14T04:24:11.008Z,101590.34
2019-04-14T04:27:00.325Z,101587.73
2019-04-14T04:29:48.458Z,101594.67
2019-04-14T04:32:33.998Z,101601.83
2019-04-14T04:35:13.150Z,101597.30
2019-04-14T04:37:56.097Z,101599.20
2019-04-14T04:40:29.040Z,101597.17
2019-04-14T04:42:59.079Z,101599.44
2019-04-14T04:45:29.870Z,101604.94
2019-04-14T04:48:00.247Z,101607.23
2019-04-14T04:50:30.353Z,101610.47
2019-04-14T04:53:00.441Z,101613.67
2019-04-14T04:55:30.600Z,101617.28
2019-04-14T04:58:01.269Z,101615.35
2019-04-14T05:00:31.033Z,101624.23
2019-04-14T05:03:01.417Z,101620.52
2019-04-14T05:06:06.743Z,101619.18
2019-04-14T05:08:39.097Z,101626.62
2019-04-14T05:11:14.948Z,101621.13
2019-04-14T05:13:46.841Z,101620.63
2019-04-14T05:16:19.214Z,101623.98
2019-04-14T05:18:48.749Z,101628.88
2019-04-14T05:21:19.240Z,101628.41
2019-04-14T05:23:49.544Z,101629.96
2019-04-14T05:26:19.811Z,101633.06
2019-04-14T05:28:50.543Z,101633.17
2019-04-14T05:31:20.769Z,101635.33
2019-04-14T05:33:51.170Z,101634.48
2019-04-14T05:36:21.473Z,101637.95
2019-04-14T05:38:51.817Z,101634.34
2019-04-14T05:41:22.270Z,101643.08
2019-04-14T05:43:56.560Z,101640.91
2019-04-14T05:46:23.100Z,101642.33
2019-04-14T05:48:53.600Z,101640.63
2019-04-14T05:51:24.558Z,101644.44
2019-04-14T05:53:54.558Z,101644.31
2019-04-14T05:56:23.852Z,101648.96
2019-04-14T05:58:53.631Z,101649.05
2019-04-14T06:01:24.736Z,101655.97
2019-04-14T06:03:54.135Z,101658.12
2019-04-14T06:06:23.527Z,101660.27
2019-04-14T06:08:52.757Z,101659.12
2019-04-14T06:11:23.073Z,101659.72
2019-04-14T06:13:52.504Z,101654.75
2019-04-14T06:16:21.832Z,101653.55
2019-04-14T06:18:51.174Z,101665.01
2019-04-14T06:21:20.499Z,101660.80
2019-04-14T06:23:49.872Z,101669.22
2019-04-14T06:26:20.102Z,101669.19
2019-04-14T06:28:49.439Z,101669.27
2019-04-14T06:31:31.686Z,101671.15
2019-04-14T06:34:07.785Z,101670.60
2019-04-14T06:37:05.108Z,101671.23
2019-04-14T06:39:37.648Z,101665.80
2019-04-14T06:42:07.292Z,101672.62
2019-04-14T06:44:36.661Z,101669.55
2019-04-14T06:47:05.971Z,101678.05
2019-04-14T06:49:35.392Z,101683.16
2019-04-14T06:52:04.772Z,101677.56
2019-04-14T06:54:34.372Z,101684.91
2019-04-14T06:57:04.327Z,101680.39
2019-04-14T06:59:33.712Z,101683.06
2019-04-14T07:02:03.181Z,101685.92
2019-04-14T07:04:32.516Z,101688.52
2019-04-14T07:07:02.068Z,101698.41
2019-04-14T07:09:31.401Z,101696.88
2019-04-14T07:12:01.065Z,101696.72
2019-04-14T07:14:31.954Z,101699.06
2019-04-14T07:17:01.605Z,101695.52
2019-04-14T07:19:30.844Z,101705.38
2019-04-14T07:22:00.452Z,101702.56
2019-04-14T07:24:29.761Z,101706.94
2019-04-14T07:26:59.109Z,101698.37
2019-04-14T07:29:31.391Z,101707.85
2019-04-14T07:32:25.911Z,101703.74
2019-04-14T07:35:26.149Z,101703.63
2019-04-14T07:38:12.678Z,101702.52
2019-04-14T07:41:09.584Z,101699.36
2019-04-14T07:43:57.773Z,101696.83
2019-04-14T07:46:45.995Z,101698.23
2019-04-14T07:49:43.385Z,101696.81
2019-04-14T07:52:35.307Z,101697.61
2019-04-14T07:55:33.160Z,101690.19
2019-04-14T07:58:24.178Z,101698.50
2019-04-14T08:01:00.499Z,101706.08
2019-04-14T08:03:51.662Z,101708.89
2019-04-14T08:06:21.214Z,101699.11
2019-04-14T08:08:50.610Z,101697.42
2019-04-14T08:11:20.090Z,101706.50
2019-04-14T08:13:49.456Z,101699.29
2019-04-14T08:16:19.198Z,101703.28
2019-04-14T08:18:48.543Z,101703.14
2019-04-14T08:21:17.887Z,101699.48
2019-04-14T08:23:47.136Z,101705.36
2019-04-14T08:26:16.481Z,101712.20
2019-04-14T08:28:45.964Z,101708.98
2019-04-14T08:31:15.661Z,101713.23
2019-04-14T08:33:45.135Z,101706.77
2019-04-14T08:36:14.867Z,101701.22
2019-04-14T08:38:44.520Z,101705.52
2019-04-14T08:41:13.875Z,101698.38
2019-04-14T08:43:52.838Z,101707.92
2019-04-14T08:46:55.106Z,101702.80
2019-04-14T08:49:50.757Z,101702.31
2019-04-14T08:52:45.179Z,101705.92
2019-04-14T08:55:36.468Z,101706.94
2019-04-14T08:58:20.371Z,101705.61
2019-04-14T09:01:08.084Z,101704.32
2019-04-14T09:03:56.389Z,101701.73
2019-04-14T09:06:43.832Z,101705.80
2019-04-14T09:09:30.476Z,101708.75
2019-04-14T09:12:14.970Z,101711.27
2019-04-14T09:14:34.473Z,101712.13
2019-04-14T09:17:04.501Z,101703.84
2019-04-14T09:19:34.163Z,101709.66
2019-04-14T09:22:03.827Z,101703.83
2019-04-14T09:24:34.293Z,101709.84
2019-04-14T09:27:04.048Z,101701.54
2019-04-14T09:29:33.937Z,101699.55
2019-04-14T09:32:05.001Z,101703.52
2019-04-14T09:34:34.447Z,101698.18
2019-04-14T09:37:03.774Z,101701.86
2019-04-14T09:39:33.442Z,101704.23
2019-04-14T09:42:03.325Z,101702.72
2019-04-14T09:44:32.561Z,101700.19
2019-04-14T09:47:01.840Z,101701.83
2019-04-14T09:49:31.411Z,101700.70
2019-04-14T09:52:00.720Z,101705.02
2019-04-14T09:54:30.380Z,101708.34
2019-04-14T09:56:59.817Z,101704.22
2019-04-14T09:59:29.243Z,101706.21
2019-04-14T10:01:58.999Z,101701.55
2019-04-14T10:04:28.555Z,101705.88
2019-04-14T10:07:02.634Z,101705.14
2019-04-14T10:09:32.026Z,101699.41
2019-04-14T10:12:02.075Z,101705.30
2019-04-14T10:14:31.692Z,101713.94
2019-04-14T10:17:01.614Z,101703.63
2019-04-14T10:19:32.666Z,101706.50
2019-04-14T10:22:02.217Z,101708.34
2019-04-14T10:24:31.883Z,101708.00
2019-04-14T10:27:02.042Z,101708.19
2019-04-14T10:29:32.881Z,101699.61
2019-04-14T10:32:04.581Z,101702.48
2019-04-14T10:34:35.041Z,101701.36
2019-04-14T10:37:22.398Z,101704.13
2019-04-14T10:39:52.523Z,101703.63
2019-04-14T10:42:26.022Z,101707.62
2019-04-14T10:45:24.391Z,101709.17
2019-04-14T10:48:01.890Z,101702.31
2019-04-14T10:51:03.438Z,101700.69
2019-04-14T10:53:59.284Z,101704.42
2019-04-14T10:59:35.795Z,101705.27
2019-04-14T11:02:07.352Z,101696.67
2019-04-14T11:04:44.780Z,101702.67
2019-04-14T11:07:33.705Z,101702.43
2019-04-14T11:10:06.002Z,101701.54
2019-04-14T11:12:54.980Z,101705.41
2019-04-14T11:15:26.112Z,101699.88
2019-04-14T11:17:58.140Z,101700.02
2019-04-14T11:20:39.219Z,101707.13
2019-04-14T11:23:14.219Z,101695.53
2019-04-14T11:25:48.383Z,101700.69
2019-04-14T11:28:22.539Z,101699.31
2019-04-14T11:30:53.737Z,101691.95
2019-04-14T11:33:35.291Z,101695.48
2019-04-14T11:36:44.678Z,101691.78
2019-04-14T11:39:33.693Z,101691.28
2019-04-14T11:42:37.019Z,101695.00
2019-04-14T11:45:12.435Z,101701.22
2019-04-14T11:47:42.457Z,101693.13
2019-04-14T11:50:13.911Z,101699.23
2019-04-14T11:52:43.340Z,101702.03
2019-04-14T11:55:21.653Z,101700.17
2019-04-14T11:57:51.017Z,101705.05
2019-04-14T12:00:49.163Z,101706.91
2019-04-14T12:03:45.978Z,101706.30
2019-04-14T12:06:35.180Z,101707.44
2019-04-14T12:09:24.439Z,101702.14
2019-04-14T12:11:56.822Z,101707.53
2019-04-14T12:14:54.659Z,101696.98
2019-04-14T12:17:32.778Z,101695.34
2019-04-14T12:20:02.483Z,101702.34
2019-04-14T12:22:32.600Z,101708.48
2019-04-14T12:25:13.502Z,101714.50
2019-04-14T12:28:00.415Z,101708.72
2019-04-14T12:30:31.227Z,101711.85
2019-04-14T12:33:05.262Z,101710.42
2019-04-14T12:35:35.441Z,101717.11
2019-04-14T12:38:04.754Z,101710.45
2019-04-14T12:40:34.313Z,101715.38
2019-04-14T12:43:21.615Z,101718.53
2019-04-14T12:46:12.737Z,101723.39
2019-04-14T12:48:59.504Z,101726.38
2019-04-14T12:52:05.718Z,101725.40
2019-04-14T12:54:39.099Z,101712.84
2019-04-14T12:57:10.974Z,101719.81
2019-04-14T12:59:40.827Z,101716.62
2019-04-14T13:02:18.249Z,101716.60
2019-04-14T13:04:49.287Z,101713.90
2019-04-14T13:07:19.314Z,101720.90
2019-04-14T13:09:51.107Z,101720.25
2019-04-14T13:12:20.722Z,101712.33
2019-04-14T13:14:51.474Z,101718.94
2019-04-14T13:17:20.955Z,101714.55
2019-04-14T13:19:50.448Z,101718.83
2019-04-14T13:22:36.766Z,101717.19
2019-04-14T13:25:06.649Z,101725.19
2019-04-14T13:27:37.720Z,101716.80
2019-04-14T13:30:13.475Z,101716.24
2019-04-14T13:32:53.922Z,101719.03
2019-04-14T13:35:23.919Z,101710.00
2019-04-14T13:37:54.521Z,101707.60
2019-04-14T13:40:26.322Z,101709.00
2019-04-14T13:42:55.915Z,101708.95
2019-04-14T13:45:26.122Z,101704.31
2019-04-14T13:47:55.418Z,101713.52
2019-04-14T13:50:24.726Z,101712.67
2019-04-14T13:52:54.835Z,101712.17
2019-04-14T13:55:24.178Z,101707.91
2019-04-14T13:57:53.563Z,101703.59
2019-04-14T14:00:23.742Z,101709.62
2019-04-14T14:02:53.172Z,101707.86
2019-04-14T14:05:23.220Z,101708.64
2019-04-14T14:07:52.902Z,101711.53
2019-04-14T14:10:22.702Z,101707.38
2019-04-14T14:13:12.483Z,101691.03
2019-04-14T14:16:01.081Z,101693.64
2019-04-14T14:18:44.035Z,101682.80
2019-04-14T14:21:38.402Z,101692.29
2019-04-14T14:24:29.722Z,101695.89
2019-04-14T14:26:59.462Z,101694.15
2019-04-14T14:29:29.191Z,101691.08
2019-04-14T14:31:59.275Z,101696.22
2019-04-14T14:34:30.173Z,101696.52
2019-04-14T14:36:59.863Z,101695.67
2019-04-14T14:39:29.685Z,101692.02
2019-04-14T14:41:59.443Z,101686.93
2019-04-14T14:44:36.132Z,101683.81
2019-04-14T14:47:17.912Z,101686.05
2019-04-14T14:50:06.436Z,101685.80
2019-04-14T14:52:36.975Z,101680.75
2019-04-14T14:55:06.953Z,101687.11
2019-04-14T14:57:36.387Z,101671.30
2019-04-14T15:00:09.886Z,101672.23
2019-04-14T15:02:39.916Z,101673.08
2019-04-14T15:05:09.537Z,101676.27
2019-04-14T15:07:38.902Z,101674.70
2019-04-14T15:10:08.487Z,101678.12
2019-04-14T15:12:38.418Z,101691.29
2019-04-14T15:15:08.577Z,101686.70
2019-04-14T15:17:38.033Z,101688.06
2019-04-14T15:20:07.650Z,101686.30
2019-04-14T15:22:37.248Z,101681.24
2019-04-14T15:25:07.068Z,101681.16
2019-04-14T15:27:36.841Z,101679.05
2019-04-14T15:30:08.277Z,101678.05
2019-04-14T15:32:37.731Z,101680.59
2019-04-14T15:35:08.100Z,101685.94
2019-04-14T15:37:37.434Z,101688.88
2019-04-14T15:40:07.117Z,101687.44
2019-04-14T15:42:36.494Z,101688.89
2019-04-14T15:45:06.993Z,101696.53
2019-04-14T15:47:36.324Z,101692.38
2019-04-14T15:50:06.150Z,101690.84
2019-04-14T15:52:35.734Z,101698.89
2019-04-14T15:55:05.414Z,101691.48
2019-04-14T15:57:50.318Z,101699.88
2019-04-14T16:00:39.078Z,101697.00
2019-04-14T16:03:21.795Z,101699.46
2019-04-14T16:06:16.255Z,101702.25
2019-04-14T16:09:07.438Z,101705.42
2019-04-14T16:11:52.898Z,101704.89
2019-04-14T16:14:34.889Z,101705.73
2019-04-14T16:17:27.150Z,101706.30
2019-04-14T16:20:01.798Z,101708.41
2019-04-14T16:22:31.340Z,101708.90
2019-04-14T16:25:00.862Z,101711.45
2019-04-14T16:27:43.558Z,101713.44
2019-04-14T16:30:41.952Z,101714.92
2019-04-14T16:33:24.504Z,101715.84
2019-04-14T16:35:54.818Z,101719.62
2019-04-14T16:38:24.418Z,101720.38
2019-04-14T16:40:54.896Z,101722.55
2019-04-14T16:43:26.280Z,101727.98
2019-04-14T16:45:56.333Z,101727.33
2019-04-14T16:48:26.013Z,101725.28
2019-04-14T16:50:55.673Z,101734.48
2019-04-14T16:53:36.219Z,101730.16
2019-04-14T16:56:33.639Z,101731.55
2019-04-14T16:59:06.642Z,101734.48
2019-04-14T17:01:41.162Z,101738.94
2019-04-14T17:04:11.129Z,101738.94
2019-04-14T17:06:40.748Z,101735.37
2019-04-14T17:09:10.352Z,101738.08
2019-04-14T17:11:40.094Z,101743.47
2019-04-14T17:14:17.562Z,101758.52
2019-04-14T17:16:55.654Z,101757.52
2019-04-14T17:19:41.562Z,101762.34
2019-04-14T17:22:15.095Z,101763.86
2019-04-14T17:25:22.051Z,101774.90
2019-04-14T17:28:13.409Z,101777.73
2019-04-14T17:30:46.522Z,101774.88
2019-04-14T17:33:34.008Z,101772.05
2019-04-14T17:36:25.094Z,101778.23
2019-04-14T17:39:08.530Z,101767.40
2019-04-14T17:41:46.258Z,101772.92
2019-04-14T17:44:35.647Z,101779.23
2019-04-14T17:47:13.412Z,101780.22
2019-04-14T17:50:08.951Z,101789.20
2019-04-14T17:52:52.237Z,101790.13
2019-04-14T17:55:28.384Z,101797.78
2019-04-14T17:58:06.299Z,101802.41
2019-04-14T18:00:53.653Z,101804.89
2019-04-14T18:03:45.342Z,101808.40
2019-04-14T18:06:25.755Z,101811.45
2019-04-14T18:09:20.652Z,101819.80
2019-04-14T18:12:03.942Z,101826.75
2019-04-14T18:14:44.484Z,101824.57
2019-04-14T18:17:42.369Z,101827.23
2019-04-14T18:20:21.834Z,101838.38
2019-04-14T18:22:52.708Z,101828.66
2019-04-14T18:25:22.370Z,101830.30
2019-04-14T18:28:22.950Z,101831.45
2019-04-14T18:30:58.170Z,101839.42
2019-04-14T18:33:44.375Z,101839.87
2019-04-14T18:36:30.461Z,101842.83
2019-04-14T18:39:22.420Z,101850.45
2019-04-14T18:42:03.053Z,101855.59
2019-04-14T18:44:59.685Z,101860.91
2019-04-14T18:47:57.217Z,101865.02
2019-04-14T18:50:34.127Z,101859.03
2019-04-14T18:53:11.748Z,101861.50
2019-04-14T18:56:06.245Z,101860.97
2019-04-14T18:58:51.320Z,101862.58
2019-04-14T19:01:26.940Z,101860.90
2019-04-14T19:03:58.111Z,101860.45
2019-04-14T19:06:28.381Z,101864.45
2019-04-14T19:08:58.052Z,101862.14
2019-04-14T19:11:49.470Z,101862.14
2019-04-14T19:14:33.681Z,101858.82
2019-04-14T19:17:08.814Z,101857.98
2019-04-14T19:19:40.141Z,101856.81
2019-04-14T19:22:09.594Z,101863.09
2019-04-14T19:24:39.157Z,101864.70
2019-04-14T19:27:08.635Z,101864.52
2019-04-14T19:29:38.070Z,101866.77
2019-04-14T19:32:07.979Z,101868.88
2019-04-14T19:34:37.424Z,101868.75
2019-04-14T19:37:07.694Z,101869.18
2019-04-14T19:39:37.044Z,101873.63
2019-04-14T19:42:06.390Z,101865.66
2019-04-14T19:44:36.067Z,101873.60
2019-04-14T19:47:05.450Z,101872.08
2019-04-14T19:49:34.847Z,101883.89
2019-04-14T19:52:04.089Z,101876.07
2019-04-14T19:54:34.571Z,101881.03
2019-04-14T19:57:03.875Z,101883.69
2019-04-14T19:59:33.140Z,101887.00
2019-04-14T20:02:02.456Z,101883.98
2019-04-14T20:04:31.796Z,101884.70
2019-04-14T20:07:01.129Z,101882.33
2019-04-14T20:09:30.866Z,101885.84
2019-04-14T20:12:00.263Z,101889.63
2019-04-14T20:14:29.929Z,101886.62
2019-04-14T20:17:07.880Z,101892.30
2019-04-14T20:19:51.740Z,101896.58
2019-04-14T20:22:35.625Z,101894.23
2019-04-14T20:25:09.584Z,101899.27
2019-04-14T20:27:56.710Z,101899.91
2019-04-14T20:30:33.163Z,101898.94
2019-04-14T20:33:04.650Z,101900.11
2019-04-14T20:35:34.717Z,101903.61
2019-04-14T20:38:08.554Z,101909.91
2019-04-14T20:40:51.807Z,101909.06
2019-04-14T20:43:23.749Z,101911.42
2019-04-14T20:46:18.101Z,101917.97
2019-04-14T20:48:50.592Z,101924.16
2019-04-14T20:51:20.508Z,101924.65
2019-04-14T20:53:49.984Z,101917.52
2019-04-14T20:56:19.872Z,101919.33
2019-04-14T20:58:51.609Z,101919.85
2019-04-14T21:01:21.910Z,101913.82
2019-04-14T21:04:09.011Z,101923.84
2019-04-14T21:06:57.664Z,101928.83
2019-04-14T21:09:49.677Z,101934.34
2019-04-14T21:12:41.962Z,101939.73
2019-04-14T21:15:18.436Z,101935.09
2019-04-14T21:17:56.211Z,101929.41
2019-04-14T21:20:33.857Z,101930.80
2019-04-14T21:23:13.956Z,101931.06
2019-04-14T21:26:01.637Z,101931.20
2019-04-14T21:28:49.043Z,101931.26
2019-04-14T21:31:40.707Z,101936.06
2019-04-14T21:34:33.830Z,101939.08
2019-04-14T21:37:22.858Z,101940.95
2019-04-14T21:40:11.823Z,101942.51
2019-04-14T21:42:43.921Z,101947.83
2019-04-14T21:45:16.685Z,101948.09
2019-04-14T21:47:49.024Z,101943.51
2019-04-14T21:50:19.522Z,101947.69
2019-04-14T21:52:53.617Z,101945.55
2019-04-14T21:55:29.457Z,101944.33
2019-04-14T21:58:26.774Z,101947.83
2019-04-14T22:01:47.595Z,101944.52
2019-04-14T22:04:43.541Z,101945.20
2019-04-14T22:07:56.495Z,101942.83
2019-04-14T22:10:45.605Z,101941.73
2019-04-14T22:13:17.105Z,101933.81
2019-04-14T22:15:47.420Z,101935.20
2019-04-14T22:18:20.890Z,101933.77
2019-04-14T22:20:54.931Z,101939.28
2019-04-14T22:23:30.593Z,101928.28
2019-04-14T22:26:06.307Z,101933.61
2019-04-14T22:29:02.453Z,101933.25
2019-04-14T22:31:47.711Z,101926.11
2019-04-14T22:34:23.295Z,101934.20
2019-04-14T22:36:53.990Z,101935.97
2019-04-14T22:39:26.242Z,101933.96
2019-04-14T22:41:58.205Z,101928.83
2019-04-14T22:44:29.607Z,101930.78
2019-04-14T22:47:09.404Z,101924.30
2019-04-14T22:49:42.146Z,101924.78
2019-04-14T22:52:23.006Z,101927.73
2019-04-14T22:55:05.267Z,101925.78
2019-04-14T22:57:40.457Z,101932.87
2019-04-14T23:00:34.788Z,101932.19
2019-04-14T23:03:42.372Z,101931.70
2019-04-14T23:06:32.919Z,101936.34
2019-04-14T23:09:31.789Z,101934.91
2019-04-14T23:12:15.756Z,101938.57
2019-04-14T23:15:07.267Z,101931.23
2019-04-14T23:17:50.794Z,101928.26
2019-04-14T23:20:31.399Z,101922.88
2019-04-14T23:23:37.243Z,101915.13
2019-04-14T23:26:16.971Z,101917.44
2019-04-14T23:29:09.359Z,101911.05
2019-04-14T23:31:42.719Z,101915.73
2019-04-14T23:34:21.764Z,101913.52
2019-04-14T23:36:56.657Z,101913.39
2019-04-14T23:39:31.672Z,101915.02
2019-04-14T23:42:11.329Z,101911.35
2019-04-14T23:45:02.914Z,101909.53
2019-04-14T23:47:36.151Z,101909.41
2019-04-14T23:50:09.218Z,101911.60
2019-04-14T23:53:03.988Z,101904.27
2019-04-14T23:55:37.383Z,101902.13
2019-04-14T23:58:10.870Z,101901.64
